createdAt,value
2023-04-05T00:01:33.929Z,7.30
2023-04-05T00:03:38.502Z,6.88
2023-04-05T00:05:41.684Z,7.63
2023-04-05T00:07:48.154Z,7.30
2023-04-05T00:09:51.265Z,7.80
2023-04-05T00:11:54.360Z,7.72
2023-04-05T00:13:58.065Z,8.10
2023-04-05T00:16:01.473Z,7.78
2023-04-05T00:18:04.803Z,7.38
2023-04-05T00:20:11.285Z,7.55
2023-04-05T00:22:14.414Z,7.10
2023-04-05T00:24:17.496Z,7.90
2023-04-05T00:26:21.143Z,7.93
2023-04-05T00:28:29.220Z,7.93
2023-04-05T00:30:33.598Z,7.75
2023-04-05T00:32:37.126Z,8.13
2023-04-05T00:34:40.429Z,8.23
2023-04-05T00:36:44.926Z,7.85
2023-04-05T00:38:49.674Z,7.88
2023-04-05T00:40:52.736Z,7.43
2023-04-05T00:42:55.859Z,6.43
2023-04-05T00:44:59.090Z,7.00
2023-04-05T00:47:03.008Z,6.68
2023-04-05T00:49:06.234Z,7.65
2023-04-05T00:51:11.810Z,7.00
2023-04-05T00:53:19.514Z,6.85
2023-04-05T00:55:22.739Z,5.95
2023-04-05T00:57:26.437Z,6.65
2023-04-05T00:59:30.031Z,5.90
2023-04-05T01:01:34.437Z,5.95
2023-04-05T01:03:39.662Z,5.40
2023-04-05T01:05:47.174Z,7.05
2023-04-05T01:07:53.588Z,5.30
2023-04-05T01:09:59.824Z,5.60
2023-04-05T01:12:07.125Z,5.65
2023-04-05T01:14:11.051Z,5.38
2023-04-05T01:16:14.257Z,6.30
2023-04-05T01:18:17.385Z,5.95
2023-04-05T01:20:22.889Z,6.07
2023-04-05T01:22:55.510Z,6.65
2023-04-05T01:25:19.485Z,7.50
2023-04-05T01:27:24.106Z,7.95
2023-04-05T01:29:45.981Z,7.45
2023-04-05T01:31:51.779Z,7.35
2023-04-05T01:34:00.672Z,7.22
2023-04-05T01:36:10.349Z,7.75
2023-04-05T01:38:17.794Z,7.05
2023-04-05T01:40:21.589Z,7.47
2023-04-05T01:42:26.233Z,7.55
2023-04-05T01:44:30.950Z,7.55
2023-04-05T01:46:34.167Z,7.80
2023-04-05T01:48:37.337Z,8.45
2023-04-05T01:50:40.740Z,7.82
2023-04-05T01:52:43.844Z,8.88
2023-04-05T01:54:46.903Z,8.02
2023-04-05T01:56:49.970Z,8.85
2023-04-05T01:58:53.124Z,8.23
2023-04-05T02:00:58.080Z,8.13
2023-04-05T02:03:01.349Z,9.18
2023-04-05T02:05:04.578Z,9.50
2023-04-05T02:07:07.670Z,8.45
2023-04-05T02:09:10.994Z,9.02
2023-04-05T02:11:14.050Z,8.55
2023-04-05T02:13:17.135Z,8.95
2023-04-05T02:15:20.216Z,9.00
2023-04-05T02:17:24.688Z,8.80
2023-04-05T02:19:29.854Z,8.70
2023-04-05T02:21:32.919Z,9.40
2023-04-05T02:23:36.246Z,8.77
2023-04-05T02:25:39.441Z,8.70
2023-04-05T02:27:42.525Z,9.27
2023-04-05T02:29:45.720Z,9.00
2023-04-05T02:31:50.970Z,9.60
2023-04-05T02:33:56.053Z,8.90
2023-04-05T02:35:59.157Z,9.90
2023-04-05T02:38:02.376Z,9.55
2023-04-05T02:40:09.343Z,9.40
2023-04-05T02:42:15.471Z,9.75
2023-04-05T02:44:18.495Z,9.63
2023-04-05T02:46:21.866Z,9.43
2023-04-05T02:48:25.306Z,9.40
2023-04-05T02:50:30.581Z,9.07
2023-04-05T02:52:34.281Z,8.68
2023-04-05T02:54:37.572Z,9.02
2023-04-05T02:56:40.672Z,9.55
2023-04-05T02:58:49.362Z,9.90
2023-04-05T03:00:57.396Z,9.77
2023-04-05T03:03:06.665Z,8.85
2023-04-05T03:05:18.663Z,8.95
2023-04-05T03:07:27.801Z,10.55
2023-04-05T03:09:33.685Z,9.85
2023-04-05T03:11:41.615Z,10.30
2023-04-05T03:13:45.392Z,8.70
2023-04-05T03:15:56.491Z,9.57
2023-04-05T03:18:01.690Z,10.18
2023-04-05T03:20:08.842Z,10.85
2023-04-05T03:22:12.267Z,9.25
2023-04-05T03:24:17.078Z,10.40
2023-04-05T03:26:20.622Z,10.80
2023-04-05T03:28:27.291Z,9.07
2023-04-05T03:30:35.624Z,9.88
2023-04-05T03:32:50.196Z,10.50
2023-04-05T03:35:10.804Z,9.82
2023-04-05T03:37:14.872Z,9.43
2023-04-05T03:39:24.966Z,9.88
2023-04-05T03:41:28.668Z,9.93
2023-04-05T03:43:33.108Z,10.30
2023-04-05T03:45:36.238Z,9.60
2023-04-05T03:47:38.604Z,10.05
2023-04-05T03:49:43.388Z,9.65
2023-04-05T03:51:47.127Z,9.40
2023-04-05T03:53:50.642Z,8.65
2023-04-05T03:55:55.793Z,10.10
2023-04-05T03:58:16.794Z,10.35
2023-04-05T04:00:20.511Z,9.43
2023-04-05T04:02:39.399Z,9.52
2023-04-05T04:04:42.561Z,9.85
2023-04-05T04:06:45.758Z,9.80
2023-04-05T04:08:50.714Z,10.02
2023-04-05T04:10:55.256Z,9.23
2023-04-05T04:13:04.427Z,9.70
2023-04-05T04:15:10.751Z,11.25
2023-04-05T04:17:28.492Z,9.73
2023-04-05T04:19:50.336Z,9.02
2023-04-05T04:22:22.723Z,10.00
2023-04-05T04:24:27.362Z,9.60
2023-04-05T04:26:37.843Z,10.60
2023-04-05T04:29:07.345Z,9.75
2023-04-05T04:31:22.996Z,9.90
2023-04-05T04:33:51.074Z,9.50
2023-04-05T04:36:26.632Z,11.07
2023-04-05T04:38:54.747Z,10.10
2023-04-05T04:41:02.603Z,9.55
2023-04-05T04:43:27.806Z,10.15
2023-04-05T04:45:57.007Z,9.93
2023-04-05T04:48:23.607Z,11.10
2023-04-05T04:50:33.167Z,10.65
2023-04-05T04:52:36.197Z,11.00
2023-04-05T04:54:42.517Z,10.80
2023-04-05T04:56:45.622Z,9.95
2023-04-05T04:58:52.599Z,9.52
2023-04-05T05:00:57.229Z,9.20
2023-04-05T05:03:00.828Z,9.60
2023-04-05T05:05:04.429Z,10.45
2023-04-05T05:07:07.500Z,9.75
2023-04-05T05:09:10.789Z,10.18
2023-04-05T05:11:22.506Z,10.23
2023-04-05T05:13:25.743Z,10.05
2023-04-05T05:15:30.371Z,10.90
2023-04-05T05:17:34.763Z,10.52
2023-04-05T05:19:37.853Z,10.52
2023-04-05T05:21:40.874Z,10.05
2023-04-05T05:23:44.058Z,9.43
2023-04-05T05:25:47.161Z,9.13
2023-04-05T05:27:52.020Z,9.63
2023-04-05T05:29:57.868Z,10.15
2023-04-05T05:32:02.349Z,10.70
2023-04-05T05:34:06.391Z,11.00
2023-04-05T05:36:10.134Z,10.35
2023-04-05T05:38:13.977Z,10.68
2023-04-05T05:40:17.255Z,10.55
2023-04-05T05:42:21.234Z,11.65
2023-04-05T05:44:24.354Z,10.18
2023-04-05T05:46:27.674Z,10.93
2023-04-05T05:48:33.297Z,11.15
2023-04-05T05:50:36.330Z,10.85
2023-04-05T05:52:39.657Z,12.48
2023-04-05T05:54:42.738Z,10.93
2023-04-05T05:56:45.850Z,10.38
2023-04-05T05:58:49.247Z,10.55
2023-04-05T06:00:56.907Z,10.70
2023-04-05T06:03:00.177Z,11.05
2023-04-05T06:05:05.176Z,10.30
2023-04-05T06:07:08.278Z,11.73
2023-04-05T06:09:11.551Z,10.65
2023-04-05T06:11:18.866Z,10.85
2023-04-05T06:13:21.867Z,11.80
2023-04-05T06:15:24.934Z,12.80
2023-04-05T06:17:28.530Z,12.13
2023-04-05T06:19:31.814Z,14.48
2023-04-05T06:21:36.239Z,13.90
2023-04-05T06:23:41.060Z,11.32
2023-04-05T06:25:44.639Z,11.85
2023-04-05T06:27:47.745Z,11.65
2023-04-05T06:29:50.711Z,11.73
2023-04-05T06:31:54.281Z,10.63
2023-04-05T06:33:57.359Z,11.05
2023-04-05T06:36:00.566Z,10.80
2023-04-05T06:38:05.028Z,12.02
2023-04-05T06:40:09.542Z,10.43
2023-04-05T06:42:12.648Z,10.30
2023-04-05T06:44:21.805Z,10.93
2023-04-05T06:46:25.073Z,9.40
2023-04-05T06:48:29.285Z,9.50
2023-04-05T06:50:32.419Z,9.00
2023-04-05T06:52:36.244Z,8.85
2023-04-05T06:54:40.675Z,9.52
2023-04-05T06:56:43.701Z,9.70
2023-04-05T06:58:46.914Z,8.73
2023-04-05T07:00:50.183Z,9.32
2023-04-05T07:02:53.441Z,9.43
2023-04-05T07:05:00.689Z,9.90
2023-04-05T07:07:03.820Z,9.25
2023-04-05T07:09:07.235Z,9.50
2023-04-05T07:11:11.824Z,8.73
2023-04-05T07:13:15.142Z,8.35
2023-04-05T07:15:18.533Z,8.63
2023-04-05T07:17:21.784Z,8.15
2023-04-05T07:19:24.907Z,8.15
2023-04-05T07:21:28.211Z,8.15
2023-04-05T07:23:31.466Z,8.32
2023-04-05T07:25:34.865Z,8.50
2023-04-05T07:27:39.782Z,8.15
2023-04-05T07:29:44.600Z,8.20
2023-04-05T07:31:49.005Z,9.13
2023-04-05T07:33:52.059Z,9.15
2023-04-05T07:35:55.495Z,8.27
2023-04-05T07:37:58.824Z,8.65
2023-04-05T07:40:01.982Z,7.90
2023-04-05T07:42:05.161Z,8.40
2023-04-05T07:44:09.635Z,7.38
2023-04-05T07:46:12.773Z,8.27
2023-04-05T07:48:15.900Z,8.07
2023-04-05T07:50:19.150Z,8.63
2023-04-05T07:52:22.275Z,8.77
2023-04-05T07:54:25.332Z,8.87
2023-04-05T07:56:28.444Z,8.00
2023-04-05T07:58:32.508Z,8.25
2023-04-05T08:00:37.091Z,8.07
2023-04-05T08:02:40.300Z,7.70
2023-04-05T08:04:43.493Z,8.03
2023-04-05T08:06:47.178Z,7.80
2023-04-05T08:08:50.347Z,8.50
2023-04-05T08:10:53.618Z,7.30
2023-04-05T08:12:56.675Z,8.00
2023-04-05T08:14:59.707Z,7.77
2023-04-05T08:17:04.161Z,7.47
2023-04-05T08:19:07.339Z,8.03
2023-04-05T08:21:10.502Z,7.57
2023-04-05T08:23:13.651Z,8.03
2023-04-05T08:25:16.808Z,7.23
2023-04-05T08:27:19.866Z,7.90
2023-04-05T08:29:23.062Z,7.33
2023-04-05T08:31:26.665Z,7.30
2023-04-05T08:33:31.454Z,7.90
2023-04-05T08:35:36.959Z,7.47
2023-04-05T08:37:40.171Z,7.43
2023-04-05T08:39:43.218Z,7.60
2023-04-05T08:41:51.873Z,7.10
2023-04-05T08:43:59.022Z,7.67
2023-04-05T08:46:02.530Z,7.20
2023-04-05T08:48:06.008Z,7.40
2023-04-05T08:50:13.752Z,8.50
2023-04-05T08:52:17.228Z,8.10
2023-04-05T08:54:20.265Z,7.10
2023-04-05T08:56:27.006Z,7.80
2023-04-05T08:58:34.137Z,7.97
2023-04-05T09:00:37.320Z,8.43
2023-04-05T09:02:41.299Z,9.37
2023-04-05T09:04:45.634Z,8.10
2023-04-05T09:06:51.543Z,8.20
2023-04-05T09:08:55.066Z,8.00
2023-04-05T09:10:58.204Z,8.60
2023-04-05T09:13:03.536Z,8.00
2023-04-05T09:15:07.647Z,7.93
2023-04-05T09:17:11.152Z,7.33
2023-04-05T09:19:14.812Z,8.23
2023-04-05T09:21:18.299Z,7.50
2023-04-05T09:23:22.789Z,7.80
2023-04-05T09:25:36.378Z,7.90
2023-04-05T09:27:55.423Z,7.67
2023-04-05T09:29:58.490Z,7.90
2023-04-05T09:32:02.735Z,7.50
2023-04-05T09:34:06.441Z,8.13
2023-04-05T09:36:10.020Z,7.73
2023-04-05T09:38:13.236Z,7.40
2023-04-05T09:40:17.738Z,7.40
2023-04-05T09:42:22.948Z,7.97
2023-04-05T09:44:26.452Z,8.03
2023-04-05T09:46:34.473Z,7.17
2023-04-05T09:48:47.369Z,7.13
2023-04-05T09:50:50.764Z,7.43
2023-04-05T09:53:06.987Z,7.10
2023-04-05T09:55:11.003Z,7.37
2023-04-05T09:57:17.021Z,7.30
2023-04-05T09:59:20.182Z,6.67
2023-04-05T10:01:23.437Z,7.27
2023-04-05T10:03:27.432Z,7.37
2023-04-05T10:05:32.674Z,7.03
2023-04-05T10:07:36.023Z,7.53
2023-04-05T10:09:39.460Z,6.97
2023-04-05T10:11:43.598Z,7.83
2023-04-05T10:13:48.650Z,6.33
2023-04-05T10:15:55.596Z,7.10
2023-04-05T10:18:04.029Z,6.63
2023-04-05T10:20:16.292Z,7.17
2023-04-05T10:22:25.816Z,6.87
2023-04-05T10:24:36.697Z,7.47
2023-04-05T10:26:46.706Z,6.57
2023-04-05T10:28:53.803Z,6.97
2023-04-05T10:31:02.198Z,6.80
2023-04-05T10:33:12.981Z,7.43
2023-04-05T10:35:18.212Z,7.50
2023-04-05T10:37:29.827Z,7.70
2023-04-05T10:39:36.106Z,6.00
2023-04-05T10:41:43.621Z,6.80
2023-04-05T10:43:47.621Z,6.80
2023-04-05T10:45:54.579Z,6.07
2023-04-05T10:48:02.198Z,6.40
2023-04-05T10:50:06.426Z,6.80
2023-04-05T10:52:09.595Z,6.53
2023-04-05T10:54:12.769Z,6.27
2023-04-05T10:56:15.990Z,6.50
2023-04-05T10:58:19.515Z,7.00
2023-04-05T11:00:24.079Z,6.30
2023-04-05T11:02:29.805Z,6.70
2023-04-05T11:04:34.667Z,6.53
2023-04-05T11:06:37.872Z,5.93
2023-04-05T11:08:42.955Z,6.30
2023-04-05T11:10:53.561Z,6.27
2023-04-05T11:13:07.818Z,6.13
2023-04-05T11:15:30.082Z,6.50
2023-04-05T11:17:34.626Z,6.50
2023-04-05T11:19:52.256Z,6.33
2023-04-05T11:22:02.410Z,6.17
2023-04-05T11:24:07.719Z,6.50
2023-04-05T11:26:11.175Z,5.83
2023-04-05T11:28:24.384Z,6.10
2023-04-05T11:30:48.739Z,6.10
2023-04-05T11:32:53.487Z,6.30
2023-04-05T11:35:01.064Z,6.45
2023-04-05T11:37:04.454Z,10.53
2023-04-05T11:39:27.205Z,7.23
2023-04-05T11:41:34.374Z,6.30
2023-04-05T11:43:39.361Z,5.93
2023-04-05T11:45:43.557Z,6.40
2023-04-05T11:47:46.840Z,6.80
2023-04-05T11:49:52.488Z,6.43
2023-04-05T11:51:55.775Z,6.90
2023-04-05T11:53:58.794Z,7.23
2023-04-05T11:56:08.335Z,8.30
2023-04-05T11:58:15.528Z,5.90
2023-04-05T12:00:19.967Z,5.80
2023-04-05T12:02:23.290Z,6.17
2023-04-05T12:04:26.541Z,6.50
2023-04-05T12:06:31.495Z,6.23
2023-04-05T12:08:42.042Z,6.37
2023-04-05T12:10:45.668Z,6.10
2023-04-05T12:12:49.324Z,6.60
2023-04-05T12:14:52.503Z,6.00
2023-04-05T12:16:55.787Z,6.20
2023-04-05T12:19:00.040Z,6.40
2023-04-05T12:21:07.065Z,6.00
2023-04-05T12:23:12.402Z,6.63
2023-04-05T12:25:15.993Z,6.43
2023-04-05T12:27:19.139Z,6.63
2023-04-05T12:29:22.237Z,6.53
2023-04-05T12:31:39.139Z,6.50
2023-04-05T12:33:44.377Z,6.47
2023-04-05T12:35:47.532Z,6.30
2023-04-05T12:37:51.592Z,6.60
2023-04-05T12:39:57.098Z,6.10
2023-04-05T12:42:01.100Z,6.20
2023-04-05T12:44:06.697Z,6.10
2023-04-05T12:46:13.554Z,6.80
2023-04-05T12:48:22.121Z,6.10
2023-04-05T12:50:28.341Z,6.57
2023-04-05T12:52:32.193Z,6.00
2023-04-05T12:54:35.576Z,7.10
2023-04-05T12:56:40.357Z,6.40
2023-04-05T12:58:43.406Z,6.57
2023-04-05T13:00:47.389Z,6.30
2023-04-05T13:02:53.410Z,6.30
2023-04-05T13:04:56.672Z,6.60
2023-04-05T13:06:59.771Z,5.67
2023-04-05T13:09:02.925Z,5.57
2023-04-05T13:11:06.114Z,5.47
2023-04-05T13:13:10.622Z,6.20
2023-04-05T13:15:14.317Z,5.90
2023-04-05T13:17:17.351Z,5.77
2023-04-05T13:19:20.786Z,5.57
2023-04-05T13:21:23.926Z,6.40
2023-04-05T13:23:27.030Z,6.50
2023-04-05T13:25:30.144Z,6.90
2023-04-05T13:27:33.302Z,6.00
2023-04-05T13:29:37.730Z,6.17
2023-04-05T13:31:42.010Z,11.30
2023-04-05T13:33:45.214Z,6.60
2023-04-05T13:35:48.966Z,6.30
2023-04-05T13:37:52.031Z,6.40
2023-04-05T13:39:55.120Z,5.93
2023-04-05T13:41:58.337Z,6.20
2023-04-05T13:44:02.855Z,6.47
2023-04-05T13:46:08.485Z,6.17
2023-04-05T13:48:11.660Z,6.00
2023-04-05T13:50:14.792Z,5.43
2023-04-05T13:52:18.090Z,5.63
2023-04-05T13:54:21.169Z,5.57
2023-04-05T13:56:24.278Z,6.00
2023-04-05T13:58:27.322Z,5.43
2023-04-05T14:00:30.467Z,6.40
2023-04-05T14:02:35.271Z,6.30
2023-04-05T14:04:38.782Z,6.80
2023-04-05T14:06:41.864Z,6.70
2023-04-05T14:08:44.831Z,7.10
2023-04-05T14:10:47.966Z,7.00
2023-04-05T14:12:51.175Z,6.87
2023-04-05T14:14:54.340Z,6.50
2023-04-05T14:16:57.549Z,6.67
2023-04-05T14:19:02.087Z,7.47
2023-04-05T14:21:05.778Z,6.47
2023-04-05T14:23:08.947Z,7.23
2023-04-05T14:25:12.151Z,6.67
2023-04-05T14:27:15.425Z,6.70
2023-04-05T14:29:19.191Z,8.43
2023-04-05T14:31:22.485Z,7.60
2023-04-05T14:33:26.634Z,8.10
2023-04-05T14:35:31.361Z,7.63
2023-04-05T14:37:34.680Z,7.77
2023-04-05T14:39:37.816Z,7.50
2023-04-05T14:41:41.174Z,7.10
2023-04-05T14:43:44.417Z,7.80
2023-04-05T14:45:47.752Z,7.70
2023-04-05T14:47:50.975Z,7.50
2023-04-05T14:49:54.264Z,7.73
2023-04-05T14:51:58.955Z,7.27
2023-04-05T14:54:02.253Z,8.50
2023-04-05T14:56:06.075Z,8.50
2023-04-05T14:58:09.344Z,8.20
2023-04-05T15:00:13.555Z,7.40
2023-04-05T15:02:16.898Z,7.67
2023-04-05T15:04:20.085Z,7.20
2023-04-05T15:06:23.323Z,7.40
2023-04-05T15:08:27.855Z,8.10
2023-04-05T15:10:31.192Z,8.60
2023-04-05T15:12:34.519Z,8.97
2023-04-05T15:14:37.840Z,8.50
2023-04-05T15:16:41.096Z,8.07
2023-04-05T15:18:44.322Z,8.87
2023-04-05T15:20:47.566Z,8.50
2023-04-05T15:22:50.788Z,8.43
2023-04-05T15:24:56.581Z,7.83
2023-04-05T15:27:02.228Z,8.00
2023-04-05T15:29:05.869Z,8.33
2023-04-05T15:31:09.124Z,7.87
2023-04-05T15:33:12.427Z,8.17
2023-04-05T15:35:15.785Z,8.30
2023-04-05T15:37:19.403Z,7.23
2023-04-05T15:39:23.140Z,8.87
2023-04-05T15:41:27.763Z,8.23
2023-04-05T15:43:32.505Z,8.87
2023-04-05T15:45:35.698Z,8.60
2023-04-05T15:47:39.789Z,10.30
2023-04-05T15:49:43.463Z,8.90
2023-04-05T15:51:47.230Z,9.47
2023-04-05T15:53:50.447Z,8.87
2023-04-05T15:55:53.791Z,9.30
2023-04-05T15:57:58.393Z,9.43
2023-04-05T16:00:01.767Z,13.00
2023-04-05T16:02:08.054Z,10.40
2023-04-05T16:04:11.514Z,9.10
2023-04-05T16:06:14.856Z,9.30
2023-04-05T16:08:18.104Z,8.97
2023-04-05T16:10:21.427Z,10.30
2023-04-05T16:12:24.642Z,10.43
2023-04-05T16:14:29.461Z,9.73
2023-04-05T16:16:41.984Z,9.40
2023-04-05T16:18:49.047Z,9.93
2023-04-05T16:20:52.215Z,9.13
2023-04-05T16:22:55.957Z,9.20
2023-04-05T16:24:59.373Z,9.20
2023-04-05T16:27:02.701Z,9.30
2023-04-05T16:29:05.958Z,9.33
2023-04-05T16:31:10.656Z,10.07
2023-04-05T16:33:13.959Z,10.50
2023-04-05T16:35:17.169Z,9.27
2023-04-05T16:37:20.843Z,9.50
2023-04-05T16:39:24.177Z,9.47
2023-04-05T16:41:27.470Z,9.80
2023-04-05T16:43:31.290Z,9.17
2023-04-05T16:45:36.439Z,9.37
2023-04-05T16:47:41.350Z,9.07
2023-04-05T16:49:44.612Z,8.63
2023-04-05T16:51:47.919Z,8.40
2023-04-05T16:53:51.167Z,8.90
2023-04-05T16:55:54.359Z,9.03
2023-04-05T16:57:57.801Z,8.80
2023-04-05T17:00:01.020Z,10.23
2023-04-05T17:02:04.363Z,9.87
2023-04-05T17:04:09.111Z,9.40
2023-04-05T17:06:13.398Z,9.33
2023-04-05T17:08:16.659Z,8.67
2023-04-05T17:10:19.869Z,9.00
2023-04-05T17:12:23.085Z,8.50
2023-04-05T17:14:26.751Z,9.30
2023-04-05T17:16:30.120Z,8.40
2023-04-05T17:18:33.280Z,8.60
2023-04-05T17:20:37.936Z,9.37
2023-04-05T17:22:41.500Z,9.97
2023-04-05T17:24:47.060Z,9.60
2023-04-05T17:26:50.201Z,9.40
2023-04-05T17:28:53.446Z,8.80
2023-04-05T17:30:56.956Z,9.03
2023-04-05T17:33:00.489Z,8.80
2023-04-05T17:35:03.708Z,8.20
2023-04-05T17:37:08.370Z,9.03
2023-04-05T17:39:11.500Z,8.70
2023-04-05T17:41:14.772Z,9.30
2023-04-05T17:43:18.028Z,8.57
2023-04-05T17:45:21.256Z,9.73
2023-04-05T17:47:24.782Z,9.93
2023-04-05T17:49:27.998Z,8.77
2023-04-05T17:51:31.147Z,9.07
2023-04-05T17:53:36.025Z,8.17
2023-04-05T17:55:39.128Z,8.47
2023-04-05T17:57:42.181Z,8.50
2023-04-05T17:59:45.349Z,8.03
2023-04-05T18:01:53.459Z,7.10
2023-04-05T18:03:57.058Z,8.20
2023-04-05T18:06:00.284Z,7.40
2023-04-05T18:08:03.472Z,7.93
2023-04-05T18:10:09.023Z,7.63
2023-04-05T18:12:12.235Z,8.07
2023-04-05T18:14:15.544Z,8.30
2023-04-05T18:16:18.855Z,15.07
2023-04-05T18:18:22.483Z,14.93
2023-04-05T18:20:26.048Z,17.17
2023-04-05T18:22:32.521Z,18.40
2023-04-05T18:24:35.893Z,13.90
2023-04-05T18:26:40.508Z,12.67
2023-04-05T18:28:43.756Z,11.30
2023-04-05T18:30:47.311Z,12.37
2023-04-05T18:32:51.746Z,11.40
2023-04-05T18:34:55.002Z,26.13
2023-04-05T18:36:58.395Z,18.67
2023-04-05T18:39:03.414Z,15.37
2023-04-05T18:41:09.206Z,12.70
2023-04-05T18:43:14.608Z,11.13
2023-04-05T18:45:17.925Z,10.40
2023-04-05T18:47:21.463Z,13.30
2023-04-05T18:49:25.068Z,14.70
2023-04-05T18:51:28.635Z,17.90
2023-04-05T18:53:31.890Z,18.60
2023-04-05T18:55:35.131Z,12.30
2023-04-05T18:57:38.423Z,24.57
2023-04-05T18:59:43.032Z,49.47
2023-04-05T19:01:46.397Z,20.13
2023-04-05T19:03:50.499Z,22.37
2023-04-05T19:05:54.372Z,18.40
2023-04-05T19:07:57.683Z,14.53
2023-04-05T19:10:01.281Z,13.93
2023-04-05T19:12:04.845Z,19.30
2023-04-05T19:14:08.202Z,20.42
2023-04-05T19:16:12.822Z,15.90
2023-04-05T19:18:16.163Z,13.57
2023-04-05T19:20:19.515Z,13.40
2023-04-05T19:22:22.969Z,10.47
2023-04-05T19:24:26.525Z,10.17
2023-04-05T19:26:29.802Z,10.47
2023-04-05T19:28:33.051Z,13.27
2023-04-05T19:30:36.725Z,10.27
2023-04-05T19:32:41.702Z,10.13
2023-04-05T19:34:45.197Z,8.30
2023-04-05T19:36:48.533Z,10.68
2023-04-05T19:38:52.133Z,10.00
2023-04-05T19:40:56.433Z,9.10
2023-04-05T19:43:01.904Z,10.30
2023-04-05T19:45:09.124Z,12.80
2023-04-05T19:47:12.394Z,15.65
2023-04-05T19:49:30.583Z,14.17
2023-04-05T19:51:33.845Z,12.25
2023-04-05T19:53:41.757Z,12.85
2023-04-05T19:55:46.500Z,11.73
2023-04-05T19:57:50.608Z,11.37
2023-04-05T19:59:53.937Z,12.55
2023-04-05T20:01:58.108Z,10.60
2023-04-05T20:04:03.013Z,10.27
2023-04-05T20:06:10.019Z,9.45
2023-04-05T20:08:13.489Z,10.45
2023-04-05T20:10:17.203Z,9.20
2023-04-05T20:12:22.541Z,10.68
2023-04-05T20:14:29.039Z,9.98
2023-04-05T20:16:34.104Z,11.27
2023-04-05T20:18:37.564Z,11.63
2023-04-05T20:20:42.224Z,10.00
2023-04-05T20:22:46.883Z,9.70
2023-04-05T20:24:50.399Z,11.20
2023-04-05T20:26:56.764Z,9.80
2023-04-05T20:29:01.301Z,9.88
2023-04-05T20:31:07.006Z,9.32
2023-04-05T20:33:30.428Z,9.90
2023-04-05T20:35:36.231Z,9.40
2023-04-05T20:37:39.460Z,12.20
2023-04-05T20:39:44.170Z,13.55
2023-04-05T20:41:47.659Z,13.70
2023-04-05T20:43:51.120Z,11.35
2023-04-05T20:45:55.006Z,11.50
2023-04-05T20:47:58.359Z,12.40
2023-04-05T20:50:01.627Z,10.35
2023-04-05T20:52:07.676Z,10.20
2023-04-05T20:54:11.395Z,9.60
2023-04-05T20:56:16.095Z,10.80
2023-04-05T20:58:19.278Z,10.77
2023-04-05T21:00:22.483Z,11.27
2023-04-05T21:02:26.601Z,10.48
2023-04-05T21:04:30.238Z,10.10
2023-04-05T21:06:34.265Z,11.23
2023-04-05T21:08:39.024Z,11.57
2023-04-05T21:10:42.423Z,9.85
2023-04-05T21:12:47.040Z,9.45
2023-04-05T21:14:50.387Z,11.00
2023-04-05T21:16:53.565Z,10.65
2023-04-05T21:18:56.712Z,11.43
2023-04-05T21:21:00.651Z,11.70
2023-04-05T21:23:05.001Z,11.45
2023-04-05T21:25:09.167Z,10.43
2023-04-05T21:27:12.400Z,9.48
2023-04-05T21:29:17.027Z,9.68
2023-04-05T21:31:20.346Z,9.68
2023-04-05T21:33:23.733Z,9.43
2023-04-05T21:35:27.105Z,9.23
2023-04-05T21:37:30.346Z,8.48
2023-04-05T21:39:33.564Z,9.48
2023-04-05T21:41:36.751Z,10.40
2023-04-05T21:43:40.050Z,9.60
2023-04-05T21:45:45.945Z,9.48
2023-04-05T21:47:49.243Z,9.85
2023-04-05T21:49:53.453Z,8.70
2023-04-05T21:51:56.654Z,9.68
2023-04-05T21:53:59.862Z,8.98
2023-04-05T21:56:03.104Z,9.68
2023-04-05T21:58:06.369Z,9.63
2023-04-05T22:00:12.061Z,9.75
2023-04-05T22:02:19.589Z,8.63
2023-04-05T22:04:24.683Z,9.50
2023-04-05T22:06:29.347Z,9.45
2023-04-05T22:08:34.364Z,10.30
2023-04-05T22:10:37.730Z,9.77
2023-04-05T22:12:41.296Z,9.20
2023-04-05T22:14:44.517Z,9.13
2023-04-05T22:16:48.060Z,9.85
2023-04-05T22:18:53.374Z,9.00
2023-04-05T22:20:56.533Z,10.07
2023-04-05T22:23:00.653Z,9.07
2023-04-05T22:25:03.868Z,9.00
2023-04-05T22:27:07.107Z,9.48
2023-04-05T22:29:10.604Z,9.80
2023-04-05T22:31:14.835Z,10.13
2023-04-05T22:33:18.116Z,9.90
2023-04-05T22:35:22.606Z,9.70
2023-04-05T22:37:26.026Z,9.35
2023-04-05T22:39:29.293Z,10.30
2023-04-05T22:41:32.604Z,9.90
2023-04-05T22:43:35.902Z,10.05
2023-04-05T22:45:39.390Z,10.40
2023-04-05T22:47:42.632Z,10.85
2023-04-05T22:49:46.006Z,11.15
2023-04-05T22:51:50.565Z,10.25
2023-04-05T22:53:53.794Z,10.80
2023-04-05T22:55:56.969Z,10.52
2023-04-05T22:58:00.171Z,9.75
2023-04-05T23:00:03.822Z,10.35
2023-04-05T23:02:07.009Z,9.05
2023-04-05T23:04:10.687Z,10.02
2023-04-05T23:06:15.082Z,9.07
2023-04-05T23:08:19.658Z,9.40
2023-04-05T23:10:23.029Z,9.85
2023-04-05T23:12:26.626Z,10.00
2023-04-05T23:14:29.875Z,9.48
2023-04-05T23:16:33.068Z,9.85
2023-04-05T23:18:36.502Z,9.32
2023-04-05T23:20:39.736Z,10.00
2023-04-05T23:22:43.281Z,10.00
2023-04-05T23:24:47.927Z,9.43
2023-04-05T23:26:51.239Z,9.23
2023-04-05T23:28:54.516Z,10.48
2023-04-05T23:30:57.715Z,9.98
2023-04-05T23:33:01.042Z,9.73
2023-04-05T23:35:04.395Z,9.77
2023-04-05T23:37:07.746Z,9.60
2023-04-05T23:39:11.036Z,10.30
2023-04-05T23:41:15.623Z,9.13
2023-04-05T23:43:18.818Z,9.82
2023-04-05T23:45:22.034Z,9.45
2023-04-05T23:47:25.507Z,10.13
2023-04-05T23:49:28.926Z,10.40
2023-04-05T23:51:32.825Z,10.10
2023-04-05T23:53:36.381Z,10.40
2023-04-05T23:55:41.746Z,9.60
2023-04-05T23:57:46.432Z,9.68
2023-04-05T23:59:49.591Z,10.48
